createdAt,value
2018-07-27T00:00:25.531Z,9.75
2018-07-27T00:02:02.594Z,8.00
2018-07-27T00:03:39.160Z,9.00
2018-07-27T00:05:15.686Z,7.00
2018-07-27T00:06:53.645Z,8.00
2018-07-27T00:08:37.033Z,9.00
2018-07-27T00:10:18.459Z,8.50
2018-07-27T00:11:55.992Z,10.75
2018-07-27T00:13:34.492Z,8.00
2018-07-27T00:15:12.464Z,7.75
2018-07-27T00:16:52.553Z,9.00
2018-07-27T00:18:32.178Z,8.00
2018-07-27T00:20:10.823Z,7.75
2018-07-27T00:21:50.389Z,10.75
2018-07-27T00:23:26.866Z,10.00
2018-07-27T00:25:05.638Z,9.00
2018-07-27T00:26:43.656Z,10.25
2018-07-27T00:28:22.525Z,8.00
2018-07-27T00:30:00.952Z,9.00
2018-07-27T00:31:53.691Z,9.25
2018-07-27T00:33:30.523Z,9.00
2018-07-27T00:35:09.071Z,10.00
2018-07-27T00:36:48.942Z,10.25
2018-07-27T00:38:25.847Z,8.75
2018-07-27T00:40:02.798Z,10.00
2018-07-27T00:41:45.193Z,8.75
2018-07-27T00:43:26.523Z,9.50
2018-07-27T00:45:03.478Z,8.50
2018-07-27T00:46:43.483Z,8.50
2018-07-27T00:48:21.184Z,8.25
2018-07-27T00:50:01.946Z,8.00
2018-07-27T00:51:38.525Z,9.50
2018-07-27T00:53:15.909Z,9.00
2018-07-27T00:54:53.003Z,9.00
2018-07-27T00:56:30.935Z,7.25
2018-07-27T00:58:08.363Z,8.25
2018-07-27T00:59:46.637Z,13.25
2018-07-27T01:01:23.222Z,9.50
2018-07-27T01:03:01.068Z,10.00
2018-07-27T01:04:38.372Z,12.00
2018-07-27T01:06:16.681Z,10.00
2018-07-27T01:07:52.849Z,8.50
2018-07-27T01:09:32.535Z,7.50
2018-07-27T01:11:09.833Z,9.00
2018-07-27T01:12:46.432Z,8.50
2018-07-27T01:14:24.471Z,8.00
2018-07-27T01:16:01.688Z,10.00
2018-07-27T01:17:39.317Z,9.25
2018-07-27T01:19:18.397Z,10.50
2018-07-27T01:20:55.725Z,8.50
2018-07-27T01:22:33.761Z,9.25
2018-07-27T01:24:12.004Z,10.00
2018-07-27T01:25:48.630Z,8.75
2018-07-27T01:27:26.774Z,10.00
2018-07-27T01:29:03.696Z,9.75
2018-07-27T01:30:40.571Z,9.00
2018-07-27T01:32:17.044Z,10.00
2018-07-27T01:33:54.537Z,9.75
2018-07-27T01:35:31.393Z,8.75
2018-07-27T01:37:09.272Z,8.25
2018-07-27T01:38:47.705Z,8.75
2018-07-27T01:40:24.295Z,8.00
2018-07-27T01:42:02.472Z,9.25
2018-07-27T01:43:41.967Z,8.25
2018-07-27T01:45:18.952Z,8.00
2018-07-27T01:46:56.374Z,8.75
2018-07-27T01:48:34.064Z,8.25
2018-07-27T01:50:10.568Z,9.00
2018-07-27T01:51:47.629Z,9.00
2018-07-27T01:53:24.230Z,7.75
2018-07-27T01:55:02.063Z,8.00
2018-07-27T01:56:39.656Z,8.50
2018-07-27T01:58:16.105Z,9.50
2018-07-27T01:59:53.131Z,7.50
2018-07-27T02:01:30.119Z,9.25
2018-07-27T02:03:06.801Z,8.75
2018-07-27T02:04:43.455Z,8.75
2018-07-27T02:06:23.641Z,10.00
2018-07-27T02:08:01.564Z,8.25
2018-07-27T02:09:39.784Z,8.75
2018-07-27T02:11:20.405Z,10.00
2018-07-27T02:12:58.861Z,9.00
2018-07-27T02:14:36.304Z,9.75
2018-07-27T02:16:17.327Z,9.50
2018-07-27T02:17:54.845Z,9.00
2018-07-27T02:19:31.972Z,10.00
2018-07-27T02:21:10.168Z,9.50
2018-07-27T02:22:46.563Z,9.75
2018-07-27T02:24:23.001Z,9.50
2018-07-27T02:26:00.116Z,9.75
2018-07-27T02:27:36.691Z,8.75
2018-07-27T02:29:15.333Z,8.75
2018-07-27T02:30:53.076Z,8.00
2018-07-27T02:32:31.660Z,9.75
2018-07-27T02:34:09.320Z,10.25
2018-07-27T02:35:47.227Z,9.50
2018-07-27T02:37:25.493Z,8.75
2018-07-27T02:39:02.836Z,9.00
2018-07-27T02:40:40.041Z,10.00
2018-07-27T02:42:17.545Z,10.00
2018-07-27T02:43:54.930Z,8.00
2018-07-27T02:45:31.774Z,9.75
2018-07-27T02:47:08.253Z,10.00
2018-07-27T02:48:44.757Z,9.00
2018-07-27T02:50:21.617Z,8.50
2018-07-27T02:51:59.612Z,8.75
2018-07-27T02:53:36.848Z,10.00
2018-07-27T02:55:12.984Z,9.75
2018-07-27T02:56:49.283Z,9.75
2018-07-27T02:58:26.403Z,9.50
2018-07-27T03:00:03.753Z,9.50
2018-07-27T03:01:40.699Z,9.50
2018-07-27T03:03:17.308Z,11.00
2018-07-27T03:04:54.913Z,9.75
2018-07-27T03:06:31.384Z,11.50
2018-07-27T03:08:08.974Z,11.00
2018-07-27T03:09:46.364Z,11.50
2018-07-27T03:11:23.372Z,12.00
2018-07-27T03:13:00.272Z,12.00
2018-07-27T03:14:37.162Z,11.00
2018-07-27T03:16:13.912Z,12.00
2018-07-27T03:17:51.072Z,11.50
2018-07-27T03:19:27.804Z,12.25
2018-07-27T03:21:04.559Z,13.50
2018-07-27T03:22:41.504Z,14.25
2018-07-27T03:24:20.033Z,14.00
2018-07-27T03:25:57.682Z,13.00
2018-07-27T03:27:34.472Z,13.50
2018-07-27T03:29:11.889Z,12.75
2018-07-27T03:30:49.110Z,11.50
2018-07-27T03:32:25.601Z,11.00
2018-07-27T03:34:02.068Z,13.50
2018-07-27T03:35:39.409Z,14.25
2018-07-27T03:37:16.759Z,12.00
2018-07-27T03:38:53.203Z,11.00
2018-07-27T03:40:29.485Z,11.25
2018-07-27T03:42:05.876Z,12.00
2018-07-27T03:43:43.369Z,9.50
2018-07-27T03:45:20.074Z,9.00
2018-07-27T03:46:56.734Z,10.00
2018-07-27T03:48:33.811Z,10.00
2018-07-27T03:50:11.299Z,10.25
2018-07-27T03:51:48.342Z,9.25
2018-07-27T03:53:24.733Z,9.50
2018-07-27T03:55:01.237Z,13.75
2018-07-27T03:56:38.245Z,10.00
2018-07-27T03:58:14.641Z,10.75
2018-07-27T03:59:51.811Z,9.00
2018-07-27T04:01:28.697Z,10.00
2018-07-27T04:03:05.591Z,12.75
2018-07-27T04:04:42.042Z,13.75
2018-07-27T04:06:18.487Z,11.00
2018-07-27T04:07:55.937Z,17.25
2018-07-27T04:09:33.507Z,11.75
2018-07-27T04:11:10.329Z,11.00
2018-07-27T04:12:46.702Z,13.00
2018-07-27T04:14:23.146Z,10.50
2018-07-27T04:16:00.211Z,11.50
2018-07-27T04:17:37.282Z,10.75
2018-07-27T04:19:13.772Z,12.25
2018-07-27T04:20:50.272Z,11.50
2018-07-27T04:22:26.749Z,11.00
2018-07-27T04:24:03.242Z,11.50
2018-07-27T04:25:40.381Z,13.50
2018-07-27T04:27:17.655Z,13.00
2018-07-27T04:28:54.515Z,12.75
2018-07-27T04:30:31.294Z,16.25
2018-07-27T04:32:09.425Z,14.00
2018-07-27T04:33:45.952Z,12.25
2018-07-27T04:35:23.003Z,10.50
2018-07-27T04:37:00.088Z,10.75
2018-07-27T04:38:36.544Z,11.00
2018-07-27T04:40:13.876Z,15.00
2018-07-27T04:41:51.177Z,11.00
2018-07-27T04:43:27.818Z,13.25
2018-07-27T04:45:05.265Z,18.75
2018-07-27T04:46:41.991Z,12.25
2018-07-27T04:48:19.440Z,11.75
2018-07-27T04:49:55.961Z,10.75
2018-07-27T04:51:32.505Z,11.50
2018-07-27T04:53:08.926Z,10.75
2018-07-27T04:54:45.726Z,11.75
2018-07-27T04:56:22.132Z,11.00
2018-07-27T04:57:59.473Z,10.50
2018-07-27T04:59:35.893Z,10.25
2018-07-27T05:01:13.054Z,10.00
2018-07-27T05:02:49.482Z,10.25
2018-07-27T05:04:30.020Z,10.50
2018-07-27T05:06:07.250Z,10.25
2018-07-27T05:07:44.667Z,11.75
2018-07-27T05:09:23.883Z,11.00
2018-07-27T05:11:01.463Z,12.50
2018-07-27T05:12:39.365Z,9.50
2018-07-27T05:14:16.540Z,10.50
2018-07-27T05:15:52.948Z,12.50
2018-07-27T05:17:29.413Z,12.25
2018-07-27T05:19:06.589Z,10.75
2018-07-27T05:20:44.535Z,11.25
2018-07-27T05:22:20.959Z,11.50
2018-07-27T05:23:57.551Z,13.50
2018-07-27T05:25:33.956Z,10.25
2018-07-27T05:27:12.554Z,11.25
2018-07-27T05:28:49.110Z,15.75
2018-07-27T05:30:28.498Z,11.00
2018-07-27T05:32:04.984Z,13.00
2018-07-27T05:33:42.754Z,12.50
2018-07-27T05:35:19.256Z,11.75
2018-07-27T05:37:00.714Z,12.75
2018-07-27T05:38:38.387Z,13.25
2018-07-27T05:40:15.204Z,11.00
2018-07-27T05:41:55.909Z,12.00
2018-07-27T05:43:33.135Z,10.75
2018-07-27T05:45:09.713Z,12.50
2018-07-27T05:46:46.776Z,12.00
2018-07-27T05:48:24.434Z,13.50
2018-07-27T05:50:01.514Z,12.00
2018-07-27T05:51:38.781Z,11.25
2018-07-27T05:53:15.245Z,11.50
2018-07-27T05:54:51.626Z,12.00
2018-07-27T05:56:28.497Z,12.75
2018-07-27T05:58:05.015Z,13.00
2018-07-27T05:59:41.421Z,10.00
2018-07-27T06:01:17.944Z,11.75
2018-07-27T06:02:54.469Z,11.00
2018-07-27T06:04:31.464Z,10.00
2018-07-27T06:06:08.346Z,12.25
2018-07-27T06:07:44.891Z,11.50
2018-07-27T06:09:21.380Z,10.50
2018-07-27T06:10:59.094Z,10.50
2018-07-27T06:12:35.216Z,13.00
2018-07-27T06:14:12.063Z,15.00
2018-07-27T06:15:48.104Z,15.75
2018-07-27T06:17:27.505Z,12.75
2018-07-27T06:19:04.090Z,12.75
2018-07-27T06:20:41.425Z,12.50
2018-07-27T06:22:17.972Z,14.50
2018-07-27T06:23:54.845Z,14.75
2018-07-27T06:25:32.326Z,14.75
2018-07-27T06:27:08.867Z,11.25
2018-07-27T06:28:45.322Z,14.00
2018-07-27T06:30:23.701Z,15.00
2018-07-27T06:32:02.627Z,14.25
2018-07-27T06:33:40.003Z,13.25
2018-07-27T06:35:17.899Z,12.00
2018-07-27T06:36:56.305Z,15.75
2018-07-27T06:38:33.782Z,15.00
2018-07-27T06:40:10.420Z,13.00
2018-07-27T06:41:50.333Z,18.25
2018-07-27T06:43:26.885Z,13.50
2018-07-27T06:45:04.066Z,14.00
2018-07-27T06:46:40.685Z,13.25
2018-07-27T06:48:19.421Z,12.00
2018-07-27T06:49:56.230Z,12.50
2018-07-27T06:51:33.307Z,12.75
2018-07-27T06:53:10.529Z,11.50
2018-07-27T06:54:47.084Z,12.75
2018-07-27T06:56:23.892Z,10.75
2018-07-27T06:58:00.417Z,14.25
2018-07-27T06:59:36.830Z,13.75
2018-07-27T07:01:13.002Z,14.00
2018-07-27T07:02:50.604Z,14.50
2018-07-27T07:04:27.053Z,12.75
2018-07-27T07:06:03.339Z,12.75
2018-07-27T07:07:39.895Z,13.25
2018-07-27T07:09:16.331Z,12.50
2018-07-27T07:10:52.830Z,15.50
2018-07-27T07:12:29.323Z,13.50
2018-07-27T07:14:06.520Z,14.25
2018-07-27T07:15:43.551Z,14.00
2018-07-27T07:17:20.039Z,13.75
2018-07-27T07:18:57.185Z,17.25
2018-07-27T07:20:33.648Z,13.25
2018-07-27T07:22:11.381Z,12.00
2018-07-27T07:23:47.818Z,11.25
2018-07-27T07:25:24.335Z,12.00
2018-07-27T07:27:02.504Z,14.75
2018-07-27T07:28:42.597Z,15.75
2018-07-27T07:30:20.613Z,14.75
2018-07-27T07:31:56.888Z,12.25
2018-07-27T07:33:32.780Z,11.75
2018-07-27T07:35:11.294Z,14.00
2018-07-27T07:36:47.817Z,13.00
2018-07-27T07:38:24.292Z,11.25
2018-07-27T07:40:01.630Z,14.00
2018-07-27T07:41:38.841Z,13.75
2018-07-27T07:43:17.823Z,14.25
2018-07-27T07:44:55.763Z,11.00
2018-07-27T07:46:32.528Z,13.00
2018-07-27T07:48:10.728Z,9.00
2018-07-27T07:49:47.298Z,11.75
2018-07-27T07:51:24.874Z,14.25
2018-07-27T07:53:01.326Z,15.00
2018-07-27T07:54:39.024Z,14.25
2018-07-27T07:56:16.268Z,13.75
2018-07-27T07:57:53.498Z,11.75
2018-07-27T07:59:34.529Z,12.75
2018-07-27T08:01:11.200Z,14.00
2018-07-27T08:02:48.870Z,15.50
2018-07-27T08:04:26.517Z,15.75
2018-07-27T08:06:03.866Z,16.25
2018-07-27T08:07:40.716Z,12.25
2018-07-27T08:09:19.415Z,12.25
2018-07-27T08:11:01.313Z,13.00
2018-07-27T08:12:38.919Z,11.75
2018-07-27T08:14:16.043Z,14.75
2018-07-27T08:15:52.566Z,11.75
2018-07-27T08:17:31.842Z,14.50
2018-07-27T08:19:09.002Z,11.75
2018-07-27T08:20:47.575Z,15.00
2018-07-27T08:22:24.891Z,14.50
2018-07-27T08:24:01.361Z,12.75
2018-07-27T08:26:48.376Z,17.25
2018-07-27T08:28:41.639Z,15.50
2018-07-27T08:30:20.829Z,17.25
2018-07-27T08:32:01.591Z,14.00
2018-07-27T08:33:38.111Z,9.50
2018-07-27T08:35:14.672Z,11.50
2018-07-27T08:36:51.669Z,12.25
2018-07-27T08:38:28.528Z,13.25
2018-07-27T08:40:05.691Z,16.00
2018-07-27T08:41:42.192Z,11.00
2018-07-27T08:43:19.149Z,14.75
2018-07-27T08:44:57.669Z,11.75
2018-07-27T08:46:35.463Z,12.75
2018-07-27T08:48:12.768Z,11.00
2018-07-27T08:49:49.207Z,9.75
2018-07-27T08:51:26.792Z,11.25
2018-07-27T08:53:03.351Z,13.50
2018-07-27T08:54:40.398Z,9.50
2018-07-27T08:56:17.472Z,11.25
2018-07-27T08:57:55.397Z,10.00
2018-07-27T08:59:31.924Z,11.75
2018-07-27T09:01:09.335Z,9.25
2018-07-27T09:02:47.631Z,11.00
2018-07-27T09:04:24.762Z,12.00
2018-07-27T09:06:01.275Z,10.75
2018-07-27T09:07:37.815Z,12.50
2018-07-27T09:09:16.183Z,12.00
2018-07-27T09:10:55.456Z,12.75
2018-07-27T09:12:33.557Z,11.00
2018-07-27T09:14:10.157Z,13.75
2018-07-27T09:17:34.875Z,10.00
2018-07-27T09:19:11.997Z,13.75
2018-07-27T09:20:48.636Z,12.00
2018-07-27T09:22:25.277Z,12.75
2018-07-27T09:24:01.903Z,10.75
2018-07-27T09:25:40.089Z,12.75
2018-07-27T09:27:17.307Z,12.75
2018-07-27T09:28:57.912Z,13.25
2018-07-27T09:30:36.590Z,13.25
2018-07-27T09:32:19.096Z,13.25
2018-07-27T09:33:57.365Z,12.00
2018-07-27T09:35:38.932Z,11.50
2018-07-27T09:38:46.551Z,15.00
2018-07-27T09:40:23.717Z,10.50
2018-07-27T09:42:00.169Z,14.50
2018-07-27T09:43:38.543Z,12.50
2018-07-27T09:45:16.740Z,12.25
2018-07-27T09:46:53.542Z,11.75
2018-07-27T09:48:29.979Z,14.75
2018-07-27T09:50:07.672Z,10.00
2018-07-27T09:51:44.376Z,12.75
2018-07-27T09:53:21.543Z,13.75
2018-07-27T09:54:59.433Z,8.50
2018-07-27T09:56:37.273Z,13.25
2018-07-27T09:58:14.272Z,15.00
2018-07-27T09:59:51.629Z,12.25
2018-07-27T10:01:29.648Z,11.00
2018-07-27T10:03:07.636Z,12.00
2018-07-27T10:04:45.343Z,13.25
2018-07-27T10:06:24.509Z,12.25
2018-07-27T10:08:01.733Z,13.00
2018-07-27T10:09:41.912Z,14.50
2018-07-27T10:11:19.330Z,13.25
2018-07-27T10:12:56.693Z,13.00
2018-07-27T10:14:34.336Z,11.25
2018-07-27T10:16:12.843Z,11.75
2018-07-27T10:17:51.611Z,14.25
2018-07-27T10:19:28.945Z,12.50
2018-07-27T10:21:06.506Z,13.75
2018-07-27T10:22:43.300Z,10.75
2018-07-27T10:24:20.729Z,13.50
2018-07-27T10:25:57.410Z,13.25
2018-07-27T10:27:38.435Z,11.25
2018-07-27T10:29:15.270Z,10.50
2018-07-27T10:30:53.201Z,13.00
2018-07-27T10:32:30.716Z,11.50
2018-07-27T10:34:07.252Z,10.25
2018-07-27T10:35:45.646Z,11.25
2018-07-27T10:37:25.888Z,11.25
2018-07-27T10:39:08.534Z,12.25
2018-07-27T10:40:46.616Z,13.50
2018-07-27T10:42:25.198Z,12.00
2018-07-27T10:44:04.529Z,12.75
2018-07-27T10:45:42.980Z,12.25
2018-07-27T10:47:21.046Z,11.25
2018-07-27T10:49:00.071Z,11.00
2018-07-27T10:50:37.422Z,13.25
2018-07-27T10:52:14.638Z,14.50
2018-07-27T10:53:51.051Z,11.00
2018-07-27T10:55:31.242Z,12.25
2018-07-27T10:57:10.743Z,9.75
2018-07-27T10:58:52.905Z,9.00
2018-07-27T11:00:30.620Z,11.25
2018-07-27T11:02:07.776Z,11.50
2018-07-27T11:03:44.358Z,10.75
2018-07-27T11:05:24.696Z,10.25
2018-07-27T11:07:01.086Z,9.25
2018-07-27T11:08:40.237Z,4.50
2018-07-27T11:10:19.729Z,9.25
2018-07-27T11:11:57.500Z,9.25
2018-07-27T11:13:35.981Z,9.75
2018-07-27T11:15:16.239Z,9.00
2018-07-27T11:16:53.774Z,11.25
2018-07-27T11:18:31.524Z,11.00
2018-07-27T11:20:09.940Z,9.25
2018-07-27T11:21:48.904Z,9.00
2018-07-27T11:23:25.361Z,12.00
2018-07-27T11:25:05.872Z,9.75
2018-07-27T11:26:42.449Z,9.00
2018-07-27T11:28:20.725Z,10.00
2018-07-27T11:29:57.286Z,9.50
2018-07-27T11:31:38.879Z,8.75
2018-07-27T11:33:16.271Z,9.50
2018-07-27T11:34:52.723Z,8.25
2018-07-27T11:36:31.667Z,9.25
2018-07-27T11:38:12.238Z,10.00
2018-07-27T11:39:51.038Z,10.25
2018-07-27T11:41:28.320Z,9.50
2018-07-27T11:43:06.579Z,10.00
2018-07-27T11:44:44.339Z,9.25
2018-07-27T11:46:23.686Z,9.25
2018-07-27T11:48:03.676Z,9.25
2018-07-27T11:49:40.256Z,7.50
2018-07-27T11:51:16.654Z,7.25
2018-07-27T11:52:54.079Z,7.50
2018-07-27T11:54:30.564Z,8.75
2018-07-27T11:56:07.672Z,8.00
2018-07-27T11:57:45.655Z,9.25
2018-07-27T11:59:26.334Z,10.25
2018-07-27T12:01:03.998Z,8.75
2018-07-27T12:02:42.220Z,9.00
2018-07-27T12:04:18.941Z,11.25
2018-07-27T12:05:57.918Z,11.00
2018-07-27T12:07:36.777Z,9.25
2018-07-27T12:10:54.746Z,8.50
2018-07-27T12:12:32.666Z,7.25
2018-07-27T12:14:09.441Z,9.25
2018-07-27T12:15:51.472Z,8.75
2018-07-27T12:17:31.375Z,9.00
2018-07-27T12:19:09.209Z,9.50
2018-07-27T12:20:47.017Z,7.75
2018-07-27T12:22:25.129Z,9.00
2018-07-27T12:24:02.025Z,9.00
2018-07-27T12:25:39.874Z,10.25
2018-07-27T12:27:17.251Z,9.00
2018-07-27T12:28:55.125Z,11.25
2018-07-27T12:30:32.443Z,8.25
2018-07-27T12:32:10.552Z,10.25
2018-07-27T12:33:49.316Z,7.50
2018-07-27T12:35:37.240Z,8.25
2018-07-27T12:37:14.268Z,8.75
2018-07-27T12:38:51.578Z,7.50
2018-07-27T12:40:31.192Z,7.25
2018-07-27T12:42:11.661Z,6.50
2018-07-27T12:43:50.836Z,6.75
2018-07-27T12:45:30.721Z,7.50
2018-07-27T12:47:07.754Z,7.00
2018-07-27T12:48:46.440Z,7.50
2018-07-27T12:50:23.823Z,8.00
2018-07-27T12:52:02.324Z,8.50
2018-07-27T12:53:40.587Z,8.25
2018-07-27T12:55:17.228Z,8.25
2018-07-27T12:56:58.812Z,7.50
2018-07-27T12:58:35.916Z,8.50
2018-07-27T13:00:14.816Z,9.25
2018-07-27T13:01:52.360Z,8.50
2018-07-27T13:03:32.329Z,7.50
2018-07-27T13:05:13.245Z,8.25
2018-07-27T13:06:52.028Z,8.25
2018-07-27T13:08:29.385Z,6.75
2018-07-27T13:12:03.066Z,7.75
2018-07-27T13:13:41.180Z,7.00
2018-07-27T13:15:18.251Z,11.50
2018-07-27T13:17:09.140Z,8.50
2018-07-27T13:18:46.121Z,9.00
2018-07-27T13:20:23.277Z,8.50
2018-07-27T13:22:00.601Z,8.50
2018-07-27T13:25:10.971Z,8.75
2018-07-27T13:26:47.628Z,8.25
2018-07-27T13:28:24.238Z,8.00
2018-07-27T13:30:05.435Z,7.75
2018-07-27T13:31:54.603Z,7.50
2018-07-27T13:33:34.570Z,6.75
2018-07-27T13:36:52.422Z,8.25
2018-07-27T13:38:30.383Z,7.75
2018-07-27T13:40:09.606Z,7.25
2018-07-27T13:41:51.173Z,5.00
2018-07-27T13:43:29.054Z,7.25
2018-07-27T13:45:09.873Z,8.25
2018-07-27T13:46:47.679Z,9.25
2018-07-27T13:48:25.503Z,8.00
2018-07-27T13:50:02.131Z,9.25
2018-07-27T13:51:39.110Z,8.50
2018-07-27T13:53:17.546Z,8.25
2018-07-27T13:54:55.771Z,9.25
2018-07-27T13:56:32.383Z,9.25
2018-07-27T13:58:09.133Z,10.75
2018-07-27T13:59:50.854Z,9.75
2018-07-27T14:01:28.507Z,9.25
2018-07-27T14:03:06.664Z,9.25
2018-07-27T14:04:47.054Z,8.50
2018-07-27T14:06:24.421Z,9.75
2018-07-27T14:08:05.251Z,8.25
2018-07-27T14:09:44.357Z,10.00
2018-07-27T14:11:21.766Z,9.00
2018-07-27T14:12:59.488Z,8.75
2018-07-27T14:14:36.097Z,9.50
2018-07-27T14:16:12.886Z,7.75
2018-07-27T14:17:50.540Z,9.25
2018-07-27T14:19:28.086Z,9.50
2018-07-27T14:21:06.114Z,7.25
2018-07-27T14:22:42.782Z,9.75
2018-07-27T14:24:22.444Z,9.50
2018-07-27T14:25:59.814Z,9.00
2018-07-27T14:27:40.011Z,8.25
2018-07-27T14:29:17.138Z,9.00
2018-07-27T14:30:54.970Z,9.00
2018-07-27T14:32:32.924Z,8.50
2018-07-27T14:34:11.321Z,9.25
2018-07-27T14:35:49.170Z,9.00
2018-07-27T14:37:26.547Z,6.50
2018-07-27T14:39:03.878Z,9.50
2018-07-27T14:40:40.430Z,8.75
2018-07-27T14:42:18.677Z,10.00
2018-07-27T14:43:56.471Z,8.75
2018-07-27T14:45:34.066Z,8.75
2018-07-27T14:47:12.678Z,7.50
2018-07-27T14:48:51.478Z,8.75
2018-07-27T14:50:28.952Z,8.25
2018-07-27T14:52:06.761Z,7.50
2018-07-27T14:53:43.322Z,6.00
2018-07-27T14:55:21.255Z,8.00
2018-07-27T14:56:57.804Z,8.25
2018-07-27T14:58:37.169Z,7.50
2018-07-27T15:00:18.463Z,8.50
2018-07-27T15:01:56.479Z,9.75
2018-07-27T15:03:35.685Z,9.25
2018-07-27T15:05:14.091Z,8.75
2018-07-27T15:06:54.332Z,7.50
2018-07-27T15:08:31.526Z,9.00
2018-07-27T15:10:14.373Z,10.50
2018-07-27T15:11:55.847Z,6.75
2018-07-27T15:13:35.995Z,10.50
2018-07-27T15:15:21.690Z,7.75
2018-07-27T15:17:02.615Z,8.00
2018-07-27T15:18:43.143Z,8.50
2018-07-27T15:20:23.548Z,8.75
2018-07-27T15:22:03.459Z,7.75
2018-07-27T15:23:41.473Z,7.75
2018-07-27T15:25:18.016Z,9.00
2018-07-27T15:26:54.497Z,10.00
2018-07-27T15:28:33.644Z,7.25
2018-07-27T15:30:22.268Z,8.50
2018-07-27T15:32:02.131Z,7.75
2018-07-27T15:33:39.684Z,8.25
2018-07-27T15:35:22.651Z,9.25
2018-07-27T15:36:59.197Z,7.25
2018-07-27T15:38:36.382Z,8.50
2018-07-27T15:41:50.247Z,8.25
2018-07-27T15:43:27.339Z,7.75
2018-07-27T15:45:05.547Z,6.50
2018-07-27T15:46:47.492Z,7.00
2018-07-27T15:48:26.356Z,8.75
2018-07-27T15:50:04.710Z,8.00
2018-07-27T15:51:46.315Z,7.50
2018-07-27T15:53:22.676Z,8.25
2018-07-27T15:55:01.600Z,9.50
2018-07-27T15:56:38.956Z,8.25
2018-07-27T15:58:16.684Z,8.25
2018-07-27T16:01:37.913Z,8.25
2018-07-27T16:03:14.457Z,9.00
2018-07-27T16:04:54.032Z,7.50
2018-07-27T16:06:31.304Z,8.25
2018-07-27T16:08:09.998Z,7.50
2018-07-27T16:09:47.590Z,8.00
2018-07-27T16:11:25.471Z,10.00
2018-07-27T16:13:07.195Z,8.25
2018-07-27T16:14:46.636Z,7.75
2018-07-27T16:16:27.587Z,7.25
2018-07-27T16:18:04.700Z,8.25
2018-07-27T16:19:41.938Z,7.00
2018-07-27T16:22:49.460Z,7.75
2018-07-27T16:24:31.829Z,8.00
2018-07-27T16:26:10.740Z,7.75
2018-07-27T16:27:47.858Z,10.00
2018-07-27T16:29:28.180Z,9.50
2018-07-27T16:31:06.839Z,7.50
2018-07-27T16:32:45.145Z,7.25
2018-07-27T16:34:22.388Z,8.50
2018-07-27T16:35:59.264Z,8.50
2018-07-27T16:37:36.727Z,9.50
2018-07-27T16:39:13.313Z,8.50
2018-07-27T16:40:58.177Z,9.75
2018-07-27T16:42:40.775Z,8.00
2018-07-27T16:44:17.535Z,9.00
2018-07-27T16:45:54.345Z,7.75
2018-07-27T16:47:32.238Z,8.50
2018-07-27T16:49:09.282Z,8.00
2018-07-27T16:50:46.853Z,6.75
2018-07-27T16:52:23.454Z,6.50
2018-07-27T16:54:00.016Z,12.00
2018-07-27T16:55:37.015Z,8.75
2018-07-27T16:57:15.210Z,9.25
2018-07-27T16:58:52.035Z,7.75
2018-07-27T17:00:29.383Z,7.00
2018-07-27T17:02:05.988Z,8.25
2018-07-27T17:03:44.266Z,8.25
2018-07-27T17:05:28.364Z,9.25
2018-07-27T17:07:09.141Z,11.00
2018-07-27T17:08:47.361Z,10.25
2018-07-27T17:10:25.652Z,8.75
2018-07-27T17:12:05.029Z,9.75
2018-07-27T17:13:41.640Z,7.50
2018-07-27T17:15:20.200Z,10.75
2018-07-27T17:16:57.544Z,11.00
2018-07-27T17:18:35.998Z,10.50
2018-07-27T17:20:14.538Z,9.50
2018-07-27T17:21:53.590Z,8.50
2018-07-27T17:23:34.752Z,14.75
2018-07-27T17:25:10.889Z,7.25
2018-07-27T17:26:50.623Z,7.25
2018-07-27T17:28:30.040Z,8.25
2018-07-27T17:31:53.686Z,8.00
2018-07-27T17:33:31.198Z,9.25
2018-07-27T17:35:17.675Z,8.50
2018-07-27T17:36:56.467Z,7.00
2018-07-27T17:38:36.567Z,9.75
2018-07-27T17:40:16.526Z,12.75
2018-07-27T17:41:58.099Z,10.75
2018-07-27T17:43:48.643Z,10.00
2018-07-27T17:45:29.495Z,8.25
2018-07-27T17:47:08.249Z,10.75
2018-07-27T17:48:45.323Z,8.50
2018-07-27T17:50:33.654Z,9.25
2018-07-27T17:52:25.734Z,9.00
2018-07-27T17:54:07.573Z,7.75
2018-07-27T17:57:33.931Z,10.25
2018-07-27T17:59:11.513Z,10.00
2018-07-27T18:02:26.851Z,23.25
2018-07-27T18:04:05.130Z,10.50
2018-07-27T18:05:46.500Z,12.00
2018-07-27T18:07:24.083Z,7.50
2018-07-27T18:09:03.142Z,10.25
2018-07-27T18:10:42.297Z,10.75
2018-07-27T18:12:21.491Z,11.25
2018-07-27T18:14:02.812Z,41.50
2018-07-27T18:15:39.606Z,9.00
2018-07-27T18:17:16.708Z,13.75
2018-07-27T18:18:54.568Z,9.00
2018-07-27T18:20:31.854Z,8.00
2018-07-27T18:22:08.543Z,8.00
2018-07-27T18:23:51.101Z,8.25
2018-07-27T18:25:28.848Z,7.50
2018-07-27T18:27:06.573Z,10.00
2018-07-27T18:28:47.145Z,8.50
2018-07-27T18:30:26.956Z,8.50
2018-07-27T18:32:03.729Z,9.25
2018-07-27T18:33:40.823Z,7.50
2018-07-27T18:35:19.238Z,9.00
2018-07-27T18:37:00.556Z,8.00
2018-07-27T18:38:38.749Z,8.50
2018-07-27T18:40:17.324Z,13.00
2018-07-27T18:42:00.805Z,10.00
2018-07-27T18:43:39.399Z,10.00
2018-07-27T18:45:24.627Z,11.25
2018-07-27T18:47:01.797Z,10.25
2018-07-27T18:48:39.631Z,11.00
2018-07-27T18:50:16.496Z,10.25
2018-07-27T18:51:53.626Z,10.75
2018-07-27T18:53:30.082Z,10.00
2018-07-27T18:55:08.851Z,9.75
2018-07-27T18:57:17.541Z,11.75
2018-07-27T18:58:58.585Z,12.00
2018-07-27T19:00:35.270Z,11.50
2018-07-27T19:02:14.463Z,9.75
2018-07-27T19:03:51.000Z,10.75
2018-07-27T19:05:29.970Z,11.00
2018-07-27T19:07:07.540Z,8.50
2018-07-27T19:08:44.111Z,12.50
2018-07-27T19:10:22.823Z,11.00
2018-07-27T19:11:59.410Z,11.00
2018-07-27T19:13:37.231Z,11.25
2018-07-27T19:15:16.789Z,11.00
2018-07-27T19:16:56.544Z,11.00
2018-07-27T19:18:34.619Z,14.50
2018-07-27T19:20:13.390Z,10.75
2018-07-27T19:21:49.841Z,10.25
2018-07-27T19:23:26.861Z,13.00
2018-07-27T19:25:06.217Z,13.50
2018-07-27T19:26:44.830Z,11.25
2018-07-27T19:28:24.208Z,13.00
2018-07-27T19:30:01.360Z,10.50
2018-07-27T19:31:39.586Z,12.50
2018-07-27T19:33:16.370Z,13.50
2018-07-27T19:34:52.900Z,11.00
2018-07-27T19:36:29.242Z,12.25
2018-07-27T19:38:07.229Z,13.00
2018-07-27T19:39:49.450Z,11.50
2018-07-27T19:41:26.094Z,12.00
2018-07-27T19:43:02.518Z,11.75
2018-07-27T19:44:42.563Z,10.75
2018-07-27T19:46:21.500Z,11.25
2018-07-27T19:47:57.784Z,11.75
2018-07-27T19:49:34.507Z,12.75
2018-07-27T19:51:11.306Z,12.00
2018-07-27T19:52:49.104Z,13.75
2018-07-27T19:54:26.182Z,13.50
2018-07-27T19:56:03.923Z,12.75
2018-07-27T19:57:41.585Z,10.00
2018-07-27T19:59:18.533Z,12.75
2018-07-27T20:00:55.377Z,13.00
2018-07-27T20:02:38.006Z,12.00
2018-07-27T20:04:16.169Z,11.75
2018-07-27T20:05:53.173Z,13.00
2018-07-27T20:07:33.539Z,13.00
2018-07-27T20:09:11.302Z,12.00
2018-07-27T20:10:48.368Z,13.00
2018-07-27T20:12:24.890Z,18.00
2018-07-27T20:14:02.325Z,13.25
2018-07-27T20:15:39.805Z,13.00
2018-07-27T20:17:17.253Z,15.25
2018-07-27T20:18:56.446Z,15.75
2018-07-27T20:20:37.155Z,15.00
2018-07-27T20:22:14.245Z,13.75
2018-07-27T20:23:52.639Z,15.75
2018-07-27T20:25:31.560Z,15.25
2018-07-27T20:27:09.880Z,18.00
2018-07-27T20:28:47.159Z,17.75
2018-07-27T20:30:30.903Z,15.75
2018-07-27T20:32:07.911Z,14.50
2018-07-27T20:33:45.102Z,16.50
2018-07-27T20:35:22.711Z,14.00
2018-07-27T20:37:00.520Z,18.75
2018-07-27T20:38:38.302Z,18.00
2018-07-27T20:40:15.969Z,17.25
2018-07-27T20:41:54.310Z,20.00
2018-07-27T20:43:31.697Z,19.75
2018-07-27T20:45:09.300Z,18.25
2018-07-27T20:46:45.958Z,18.00
2018-07-27T20:48:22.371Z,16.75
2018-07-27T20:49:59.980Z,17.00
2018-07-27T20:51:38.964Z,21.50
2018-07-27T20:53:15.494Z,19.00
2018-07-27T20:54:53.920Z,18.00
2018-07-27T20:56:32.972Z,17.25
2018-07-27T20:58:11.852Z,20.50
2018-07-27T20:59:48.992Z,19.25
2018-07-27T21:01:25.780Z,19.00
2018-07-27T21:03:05.280Z,17.50
2018-07-27T21:04:43.488Z,20.25
2018-07-27T21:06:21.978Z,19.50
2018-07-27T21:08:04.857Z,16.50
2018-07-27T21:09:41.965Z,17.75
2018-07-27T21:11:20.424Z,16.25
2018-07-27T21:12:57.002Z,18.00
2018-07-27T21:14:33.593Z,18.00
2018-07-27T21:16:14.423Z,16.50
2018-07-27T21:17:54.085Z,14.50
2018-07-27T21:19:33.570Z,16.50
2018-07-27T21:21:10.258Z,15.75
2018-07-27T21:22:48.956Z,18.25
2018-07-27T21:24:25.446Z,15.75
2018-07-27T21:26:02.685Z,16.75
2018-07-27T21:27:39.237Z,15.75
2018-07-27T21:29:16.804Z,16.25
2018-07-27T21:30:56.032Z,16.50
2018-07-27T21:32:34.760Z,14.00
2018-07-27T21:34:13.110Z,16.00
2018-07-27T21:35:53.250Z,11.75
2018-07-27T21:37:32.015Z,15.00
2018-07-27T21:39:13.827Z,14.00
2018-07-27T21:40:54.307Z,14.00
2018-07-27T21:42:33.777Z,13.50